Awosting, New Jersey
Current Conditions -  °F | °C
As of 8:53 AM on Thursday 29 Jan 2015 (Local Time) from KFWN Reporting Station
Unknown Precip Unknown Precip  
Wind Chill: -1°   Ceiling: Unl
Heat Index: -1°   Visibility: 10mi
Dew Point: -2°   Wind: 3mph
Humidity: 95%   Direction: 170°S
Pressure: 30.3"   Gusts: NA
Location:  41.1652°N, 74.3769°W
Report Text: KFWN 291353Z AUTO 17003KT 10SM UP CLR M18/M19 A3030 RMK AO2 UPB43 SLP269 P0000 T11831189
Loading
Personal Weather Stations






























Interactive Weather Map New forecast layout! Learn more

10-Day Weather Forecast

Advertisements
Track Severe Weather on mobile